Time;durP1;ratioP1;P1;durP2;ratioP2;P2;SDS_P1;SDS_P2;PMS_P1;PMS_P2;Temp;Humidity;BMP_temperature;BMP_pressure;BME280_temperature;BME280_humidity;BME280_pressure;Samples;Min_cycle;Max_cycle;Signal;HPM_P1;HPM_P2
2023/06/04 00:02:54;;;;;;;11.10;7.22;;;19.10;77.70;;;;;;6324963;28;20114;-73
2023/06/04 00:05:56;;;;;;;11.57;6.43;;;19.00;78.00;;;;;;6324884;28;20053;-71
2023/06/04 00:09:00;;;;;;;11.00;6.88;;;18.90;78.30;;;;;;6300779;28;20045;-70
2023/06/04 00:12:03;;;;;;;12.50;7.60;;;18.90;78.40;;;;;;6303131;28;20055;-72
2023/06/04 00:15:07;;;;;;;10.63;7.07;;;18.70;78.30;;;;;;6325691;28;20047;-70
2023/06/04 00:18:10;;;;;;;12.32;7.32;;;18.60;78.60;;;;;;6325021;28;20062;-70
2023/06/04 00:21:12;;;;;;;13.50;9.18;;;18.60;79.20;;;;;;6333063;28;20048;-74
2023/06/04 00:24:16;;;;;;;11.68;6.70;;;18.50;78.80;;;;;;6349268;28;20039;-70
2023/06/04 00:27:18;;;;;;;11.25;7.22;;;18.50;79.60;;;;;;6335483;28;20048;-72
2023/06/04 00:30:20;;;;;;;10.05;6.80;;;18.50;79.10;;;;;;6323970;28;20051;-71
2023/06/04 00:33:22;;;;;;;12.23;7.55;;;18.40;79.50;;;;;;6324693;28;20051;-71
2023/06/04 00:36:24;;;;;;;11.52;7.70;;;18.40;79.70;;;;;;6314789;28;20052;-71
2023/06/04 00:39:27;;;;;;;10.52;7.25;;;18.30;80.10;;;;;;6299621;28;20616;-72
2023/06/04 00:42:29;;;;;;;13.52;7.18;;;18.30;80.40;;;;;;6298592;28;20414;-71
2023/06/04 00:45:31;;;;;;;10.43;7.30;;;18.30;80.40;;;;;;6329418;28;20054;-71
2023/06/04 00:48:33;;;;;;;10.55;7.20;;;18.20;80.30;;;;;;6327663;28;20040;-70
2023/06/04 00:51:36;;;;;;;13.70;7.72;;;18.20;80.30;;;;;;6335217;28;20120;-71
2023/06/04 00:54:40;;;;;;;14.02;7.95;;;18.10;80.50;;;;;;6349637;28;20062;-70
2023/06/04 00:57:41;;;;;;;13.98;7.85;;;18.10;80.90;;;;;;6328197;28;20047;-71
2023/06/04 01:00:44;;;;;;;12.40;8.02;;;18.00;81.90;;;;;;6323854;28;20044;-70
2023/06/04 01:03:51;;;;;;;10.88;7.25;;;18.00;81.50;;;;;;6324218;28;20050;-70
2023/06/04 01:06:58;;;;;;;12.05;7.43;;;18.00;81.60;;;;;;6323520;28;20055;-71
2023/06/04 01:10:01;;;;;;;12.23;7.97;;;17.90;81.60;;;;;;6337762;28;20043;-70
2023/06/04 01:13:03;;;;;;;11.40;7.65;;;17.90;82.10;;;;;;6328556;28;20044;-70
2023/06/04 01:16:06;;;;;;;12.30;7.50;;;17.90;82.60;;;;;;6324759;28;20054;-73
2023/06/04 01:19:25;;;;;;;13.95;7.93;;;17.80;82.40;;;;;;6325002;28;20048;-71
2023/06/04 01:22:38;;;;;;;10.35;7.05;;;17.80;82.30;;;;;;6324160;28;20047;-71
2023/06/04 01:25:43;;;;;;;11.70;7.18;;;17.80;82.50;;;;;;6323923;28;20041;-71
2023/06/04 01:28:47;;;;;;;11.10;7.20;;;17.70;82.70;;;;;;6324200;28;20133;-71
2023/06/04 01:31:51;;;;;;;11.02;7.68;;;17.80;82.90;;;;;;6322950;28;20048;-71
2023/06/04 01:34:53;;;;;;;12.32;7.32;;;17.70;83.00;;;;;;6312360;28;20072;-69
2023/06/04 01:37:58;;;;;;;10.73;7.25;;;17.70;82.80;;;;;;6328489;28;20048;-70
2023/06/04 01:41:01;;;;;;;11.20;6.80;;;17.70;83.10;;;;;;6323341;28;20044;-71
2023/06/04 01:44:03;;;;;;;10.15;6.88;;;17.70;82.90;;;;;;6323459;28;20055;-71
2023/06/04 01:47:05;;;;;;;11.55;6.97;;;17.70;82.60;;;;;;6323122;28;20055;-71
2023/06/04 01:50:09;;;;;;;11.68;7.15;;;17.70;83.00;;;;;;6323490;28;20051;-71
2023/06/04 01:53:10;;;;;;;11.35;7.05;;;17.60;83.20;;;;;;6346535;28;20047;-71
2023/06/04 01:56:14;;;;;;;10.10;7.40;;;17.60;84.10;;;;;;6338193;28;20044;-70
2023/06/04 01:59:17;;;;;;;11.63;7.20;;;17.60;83.30;;;;;;6349609;28;20054;-70
2023/06/04 02:02:18;;;;;;;13.25;7.18;;;17.50;83.70;;;;;;6328232;28;20040;-71
2023/06/04 02:05:20;;;;;;;10.52;7.38;;;17.50;83.80;;;;;;6325575;28;20465;-73
2023/06/04 02:08:25;;;;;;;11.85;7.32;;;17.50;84.10;;;;;;6350283;28;20054;-71
2023/06/04 02:11:28;;;;;;;12.88;7.57;;;17.40;84.10;;;;;;6351030;28;20047;-70
2023/06/04 02:14:30;;;;;;;11.25;7.28;;;17.40;84.00;;;;;;6370027;28;20044;-71
2023/06/04 02:17:32;;;;;;;10.45;6.82;;;17.40;84.30;;;;;;6341937;28;20108;-76
2023/06/04 02:20:34;;;;;;;12.02;7.35;;;17.30;84.80;;;;;;6331897;28;20046;-72
2023/06/04 02:23:36;;;;;;;12.73;7.22;;;17.30;84.50;;;;;;6348103;28;20039;-75
2023/06/04 02:26:39;;;;;;;11.18;7.07;;;17.10;84.90;;;;;;6347954;28;20375;-71
2023/06/04 02:29:41;;;;;;;12.30;7.60;;;17.10;85.00;;;;;;6329827;28;20512;-71
2023/06/04 02:32:44;;;;;;;11.50;7.50;;;17.00;85.20;;;;;;6319838;28;20043;-72
2023/06/04 02:35:46;;;;;;;11.60;7.55;;;17.00;85.10;;;;;;6326455;28;20039;-71
2023/06/04 02:38:47;;;;;;;11.60;7.60;;;17.00;85.30;;;;;;6347993;28;20058;-72
2023/06/04 02:41:51;;;;;;;11.95;7.53;;;17.00;85.00;;;;;;6347913;28;20047;-72
2023/06/04 02:44:52;;;;;;;10.93;7.40;;;17.00;85.10;;;;;;6346217;28;20043;-70
2023/06/04 02:47:55;;;;;;;11.20;7.25;;;17.00;85.10;;;;;;6314472;28;20052;-70
2023/06/04 02:50:57;;;;;;;10.05;6.82;;;16.90;85.00;;;;;;6312028;28;20040;-71
2023/06/04 02:54:00;;;;;;;10.35;7.30;;;16.90;85.30;;;;;;6327673;28;20070;-71
2023/06/04 02:57:03;;;;;;;10.35;7.20;;;16.80;85.60;;;;;;6327316;28;20055;-72
2023/06/04 03:00:11;;;;;;;12.35;7.57;;;16.80;85.50;;;;;;6327720;28;20048;-72
2023/06/04 03:03:13;;;;;;;11.48;8.15;;;16.80;85.70;;;;;;6302385;28;20040;-72
2023/06/04 03:06:17;;;;;;;12.20;7.57;;;16.70;85.50;;;;;;6312332;28;20048;-72
2023/06/04 03:09:19;;;;;;;10.82;7.28;;;16.60;86.10;;;;;;6327271;28;20361;-71
2023/06/04 03:12:22;;;;;;;10.82;6.97;;;16.60;86.20;;;;;;6351636;28;20059;-72
2023/06/04 03:15:24;;;;;;;9.75;7.03;;;16.60;86.30;;;;;;6347796;28;20036;-72
2023/06/04 03:18:26;;;;;;;12.60;7.15;;;16.50;87.10;;;;;;6326576;28;20374;-71
2023/06/04 03:21:29;;;;;;;11.73;7.47;;;16.60;86.60;;;;;;6314001;28;20040;-71
2023/06/04 03:24:30;;;;;;;10.53;6.73;;;16.60;86.40;;;;;;6309732;28;20040;-72
2023/06/04 03:27:34;;;;;;;13.35;7.18;;;16.60;86.20;;;;;;6301761;28;20299;-71
2023/06/04 03:30:36;;;;;;;11.05;7.05;;;16.50;86.40;;;;;;6309481;28;20044;-70
2023/06/04 03:33:38;;;;;;;9.52;6.50;;;16.50;86.20;;;;;;6326666;28;20048;-71
2023/06/04 03:36:40;;;;;;;12.60;6.75;;;16.50;86.50;;;;;;6328633;28;20493;-70
2023/06/04 03:39:42;;;;;;;10.13;7.05;;;16.40;86.50;;;;;;6301360;28;20127;-71
2023/06/04 03:42:45;;;;;;;9.30;6.63;;;16.40;86.90;;;;;;6325541;28;20059;-70
2023/06/04 03:45:47;;;;;;;10.85;7.22;;;16.40;86.50;;;;;;6326462;28;20048;-72
2023/06/04 03:48:49;;;;;;;10.00;6.82;;;16.40;86.70;;;;;;6325929;28;20048;-71
2023/06/04 03:51:51;;;;;;;9.55;6.82;;;16.40;86.80;;;;;;6350010;28;20070;-71
2023/06/04 03:54:53;;;;;;;10.23;7.22;;;16.30;86.90;;;;;;6351321;28;20047;-71
2023/06/04 03:57:56;;;;;;;11.30;6.53;;;16.30;87.00;;;;;;6327466;28;20403;-70
2023/06/04 04:00:58;;;;;;;9.40;6.90;;;16.30;86.80;;;;;;6329912;28;20055;-71
2023/06/04 04:03:59;;;;;;;11.25;6.75;;;16.30;86.90;;;;;;6327015;28;20044;-73
2023/06/04 04:07:01;;;;;;;11.65;6.90;;;16.20;87.00;;;;;;6309769;28;20075;-71
2023/06/04 04:10:05;;;;;;;9.52;6.80;;;16.20;87.10;;;;;;6303294;28;20051;-71
2023/06/04 04:13:09;;;;;;;10.30;6.88;;;16.20;87.60;;;;;;6316169;28;20053;-72
2023/06/04 04:16:10;;;;;;;8.93;6.45;;;16.10;87.90;;;;;;6318936;28;20181;-72
2023/06/04 04:19:12;;;;;;;10.23;6.80;;;16.20;87.90;;;;;;6330519;28;20050;-70
2023/06/04 04:22:17;;;;;;;9.25;6.28;;;16.10;87.90;;;;;;6350749;28;20044;-71
2023/06/04 04:25:19;;;;;;;10.82;7.18;;;16.20;88.00;;;;;;6345419;28;20444;-70
2023/06/04 04:28:22;;;;;;;10.55;6.35;;;16.20;87.70;;;;;;6325415;28;20113;-70
2023/06/04 04:31:25;;;;;;;9.18;6.25;;;16.30;87.60;;;;;;6326148;28;20051;-71
2023/06/04 04:34:28;;;;;;;12.10;6.90;;;16.30;87.70;;;;;;6324738;28;20058;-72
2023/06/04 04:37:30;;;;;;;10.55;6.70;;;16.30;87.70;;;;;;6326788;28;20482;-70
2023/06/04 04:40:32;;;;;;;10.75;6.78;;;16.30;87.80;;;;;;6325633;28;20101;-70
2023/06/04 04:43:37;;;;;;;10.18;6.63;;;16.20;88.10;;;;;;6326709;28;20060;-70
2023/06/04 04:46:39;;;;;;;9.95;6.47;;;16.20;88.30;;;;;;6325328;28;20047;-71
2023/06/04 04:49:41;;;;;;;9.95;6.43;;;16.20;88.90;;;;;;6332715;28;20489;-71
2023/06/04 04:52:42;;;;;;;11.18;7.00;;;16.30;89.40;;;;;;6318878;28;20043;-70
2023/06/04 04:55:45;;;;;;;10.20;6.40;;;16.20;89.10;;;;;;6308606;28;20044;-70
2023/06/04 04:58:48;;;;;;;9.07;6.30;;;16.30;89.00;;;;;;6325290;28;20047;-71
2023/06/04 05:01:50;;;;;;;10.18;6.55;;;16.30;88.80;;;;;;6325879;28;20043;-72
2023/06/04 05:04:52;;;;;;;9.52;6.13;;;16.30;89.30;;;;;;6352470;28;20047;-70
2023/06/04 05:07:54;;;;;;;10.43;7.05;;;16.30;88.50;;;;;;6326331;28;20047;-72
2023/06/04 05:10:56;;;;;;;10.47;6.47;;;16.30;88.50;;;;;;6327409;28;20040;-71
2023/06/04 05:14:00;;;;;;;10.18;6.35;;;16.30;88.60;;;;;;6340375;28;20301;-71
2023/06/04 05:17:02;;;;;;;12.90;6.65;;;16.30;88.60;;;;;;6317787;28;20048;-72
2023/06/04 05:20:05;;;;;;;10.13;6.40;;;16.40;87.40;;;;;;6333067;28;20043;-70
2023/06/04 05:23:09;;;;;;;11.05;7.13;;;16.30;88.10;;;;;;6339817;28;20481;-71
2023/06/04 05:26:11;;;;;;;9.85;6.80;;;16.30;87.40;;;;;;6331592;28;20104;-72
2023/06/04 05:29:14;;;;;;;10.18;6.72;;;16.30;86.50;;;;;;6334481;28;20044;-72
2023/06/04 05:32:17;;;;;;;10.52;6.97;;;16.40;86.60;;;;;;6328302;28;20478;-75
2023/06/04 05:35:19;;;;;;;10.13;6.07;;;16.40;86.90;;;;;;6345426;28;20473;-71
2023/06/04 05:38:25;;;;;;;9.30;5.90;;;16.50;86.60;;;;;;6326997;28;20501;-70
2023/06/04 05:41:27;;;;;;;9.43;5.50;;;16.60;86.30;;;;;;6323359;28;20517;-70
2023/06/04 05:44:30;;;;;;;10.45;5.72;;;16.60;84.50;;;;;;6329680;28;20055;-72
2023/06/04 05:47:32;;;;;;;11.10;5.50;;;16.70;85.00;;;;;;6340956;28;20059;-71
2023/06/04 05:50:35;;;;;;;8.43;5.88;;;16.80;83.20;;;;;;6327458;28;20048;-72
2023/06/04 05:53:37;;;;;;;10.02;6.00;;;16.90;82.80;;;;;;6319824;28;20054;-73
2023/06/04 05:56:39;;;;;;;9.35;5.65;;;16.90;83.00;;;;;;6334268;28;20055;-71
2023/06/04 05:59:42;;;;;;;8.00;5.50;;;16.90;82.40;;;;;;6329485;28;20054;-71
2023/06/04 06:02:45;;;;;;;8.70;4.85;;;17.00;82.70;;;;;;6324022;28;20481;-71
2023/06/04 06:05:47;;;;;;;8.57;4.45;;;17.10;81.40;;;;;;6324013;28;20055;-71
2023/06/04 06:08:49;;;;;;;7.60;4.05;;;17.10;79.90;;;;;;6331708;28;20043;-70
2023/06/04 06:11:51;;;;;;;7.13;4.00;;;17.10;80.40;;;;;;6321936;28;20077;-71
2023/06/04 06:14:54;;;;;;;6.28;4.13;;;17.10;79.90;;;;;;6325585;28;20088;-72
2023/06/04 06:17:56;;;;;;;8.02;3.90;;;17.20;80.30;;;;;;6326029;28;20044;-71
2023/06/04 06:20:58;;;;;;;7.55;3.85;;;17.30;79.70;;;;;;6334264;28;20048;-70
2023/06/04 06:23:59;;;;;;;6.30;3.67;;;17.30;79.60;;;;;;6321700;28;20505;-72
2023/06/04 06:27:01;;;;;;;6.93;3.90;;;17.30;79.60;;;;;;6323594;28;20044;-72
2023/06/04 06:30:07;;;;;;;9.23;4.13;;;17.30;79.70;;;;;;6324834;28;20044;-72
2023/06/04 06:33:09;;;;;;;9.77;4.20;;;17.40;79.90;;;;;;6324246;28;20056;-73
2023/06/04 06:36:12;;;;;;;7.88;3.85;;;17.50;78.70;;;;;;6345792;28;20044;-73
2023/06/04 06:39:14;;;;;;;6.30;3.70;;;17.60;78.80;;;;;;6308946;28;20051;-71
2023/06/04 06:42:17;;;;;;;6.95;3.90;;;17.60;78.40;;;;;;6313369;28;20075;-73
2023/06/04 06:45:20;;;;;;;5.27;3.10;;;17.70;77.30;;;;;;6317508;28;20047;-72
2023/06/04 06:48:22;;;;;;;9.05;3.90;;;17.70;77.70;;;;;;6321667;28;20059;-72
2023/06/04 06:51:24;;;;;;;8.55;3.63;;;17.80;77.60;;;;;;6327773;28;20049;-72
2023/06/04 06:54:26;;;;;;;6.95;3.38;;;17.80;79.20;;;;;;6323074;28;20050;-72
2023/06/04 06:57:28;;;;;;;5.78;3.13;;;17.90;77.70;;;;;;6322820;28;20048;-72
2023/06/04 07:00:31;;;;;;;5.70;3.20;;;18.00;77.30;;;;;;6322861;28;20045;-72
2023/06/04 07:03:33;;;;;;;5.45;3.30;;;18.10;78.30;;;;;;6339757;28;20055;-71
2023/06/04 07:06:35;;;;;;;6.53;3.25;;;18.10;77.60;;;;;;6324678;28;20474;-72
2023/06/04 07:09:37;;;;;;;6.90;2.97;;;18.10;77.40;;;;;;6334880;28;20047;-72
2023/06/04 07:12:39;;;;;;;4.78;2.70;;;18.20;78.30;;;;;;6331043;28;20470;-72
2023/06/04 07:15:43;;;;;;;5.38;2.83;;;18.30;77.90;;;;;;6322745;28;20089;-71
2023/06/04 07:18:48;;;;;;;6.45;2.80;;;18.40;77.60;;;;;;6322718;28;20055;-72
2023/06/04 07:21:51;;;;;;;5.65;2.40;;;18.40;76.90;;;;;;6329710;28;20047;-71
2023/06/04 07:24:53;;;;;;;5.47;2.88;;;18.50;77.80;;;;;;6328451;28;20048;-71
2023/06/04 07:27:57;;;;;;;6.10;2.53;;;18.60;77.20;;;;;;6347213;28;20412;-71
2023/06/04 07:31:01;;;;;;;7.50;4.32;;;18.70;75.10;;;;;;6339251;28;20048;-72
2023/06/04 07:34:03;;;;;;;6.85;3.00;;;18.80;75.90;;;;;;6346379;28;20051;-70
2023/06/04 07:37:05;;;;;;;6.55;2.75;;;18.70;74.70;;;;;;6353324;28;20496;-71
2023/06/04 07:40:08;;;;;;;5.35;2.60;;;18.80;75.70;;;;;;6328998;28;20048;-71
2023/06/04 07:43:10;;;;;;;5.97;2.88;;;18.90;74.80;;;;;;6326736;28;20051;-71
2023/06/04 07:46:18;;;;;;;5.63;2.85;;;19.00;74.80;;;;;;6326240;28;20044;-70
2023/06/04 07:49:20;;;;;;;5.65;2.95;;;19.10;75.20;;;;;;6325821;28;20565;-71
2023/06/04 07:52:22;;;;;;;7.22;2.70;;;19.20;74.60;;;;;;6345350;28;20397;-70
2023/06/04 07:55:24;;;;;;;5.40;2.50;;;19.20;74.20;;;;;;6353425;28;20044;-73
2023/06/04 07:58:26;;;;;;;5.57;2.70;;;19.10;73.80;;;;;;6353932;28;20044;-71
2023/06/04 08:01:29;;;;;;;6.20;2.40;;;19.20;74.10;;;;;;6346672;28;20051;-71
2023/06/04 08:04:31;;;;;;;5.53;2.70;;;19.30;74.10;;;;;;6342322;28;20067;-71
2023/06/04 08:07:33;;;;;;;4.45;2.60;;;19.30;73.20;;;;;;6325971;28;20044;-71
2023/06/04 08:10:35;;;;;;;5.35;2.63;;;19.30;74.10;;;;;;6325139;28;20449;-70
2023/06/04 08:13:37;;;;;;;8.93;2.90;;;19.40;74.20;;;;;;6326859;28;20048;-74
2023/06/04 08:16:40;;;;;;;5.55;2.80;;;19.50;73.20;;;;;;6326260;28;20044;-76
2023/06/04 08:19:42;;;;;;;6.20;2.70;;;19.60;73.80;;;;;;6326708;28;20402;-75
2023/06/04 08:22:44;;;;;;;5.78;2.90;;;19.60;72.60;;;;;;6326107;28;20048;-75
2023/06/04 08:25:45;;;;;;;7.50;2.50;;;19.60;73.20;;;;;;6329336;28;20043;-75
2023/06/04 08:28:48;;;;;;;9.10;3.03;;;19.70;72.30;;;;;;6327408;28;20469;-75
2023/06/04 08:31:52;;;;;;;6.25;2.70;;;19.70;72.40;;;;;;6337285;28;20052;-75
2023/06/04 08:34:55;;;;;;;5.75;2.65;;;19.70;72.50;;;;;;6346855;28;20040;-75
2023/06/04 08:37:57;;;;;;;5.20;2.53;;;19.90;72.30;;;;;;6337722;28;20044;-76
2023/06/04 08:41:06;;;;;;;6.35;2.55;;;19.90;72.10;;;;;;6329684;28;20079;-74
2023/06/04 08:44:10;;;;;;;8.55;2.50;;;20.00;72.60;;;;;;6333096;28;20040;-75
2023/06/04 08:47:15;;;;;;;7.55;2.72;;;20.00;71.40;;;;;;6350135;28;20039;-74
2023/06/04 08:50:20;;;;;;;5.35;2.58;;;20.10;70.60;;;;;;6327244;28;20037;-75
2023/06/04 08:53:21;;;;;;;5.07;2.60;;;20.20;71.60;;;;;;6327748;28;20060;-74
2023/06/04 08:56:23;;;;;;;4.80;2.45;;;20.30;70.90;;;;;;6325436;28;20059;-75
2023/06/04 08:59:25;;;;;;;5.25;2.83;;;20.20;70.70;;;;;;6324465;28;20055;-78
2023/06/04 09:02:29;;;;;;;7.05;3.00;;;20.40;71.10;;;;;;6344904;28;20043;-77
2023/06/04 09:05:32;;;;;;;4.72;2.60;;;20.50;70.30;;;;;;6323905;28;20051;-71
2023/06/04 09:08:38;;;;;;;6.32;3.00;;;20.50;72.30;;;;;;6325151;28;20040;-72
2023/06/04 09:11:47;;;;;;;6.05;2.80;;;20.70;72.00;;;;;;6324145;28;20051;-72
2023/06/04 09:14:50;;;;;;;7.07;2.90;;;20.80;72.50;;;;;;6324100;28;20051;-72
2023/06/04 09:17:53;;;;;;;4.80;2.40;;;20.80;70.50;;;;;;6324728;28;20044;-71
2023/06/04 09:21:03;;;;;;;6.18;2.90;;;20.90;67.60;;;;;;6348968;28;20140;-71
2023/06/04 09:24:05;;;;;;;6.68;2.70;;;21.00;68.90;;;;;;6333196;28;20048;-78
2023/06/04 09:27:12;;;;;;;7.90;2.90;;;21.10;67.50;;;;;;6325352;28;20048;-74
2023/06/04 09:30:14;;;;;;;6.25;2.80;;;21.10;66.80;;;;;;6310219;28;20051;-75
2023/06/04 09:33:17;;;;;;;6.30;2.80;;;21.20;66.80;;;;;;6320992;28;20482;-77
2023/06/04 09:36:19;;;;;;;6.38;2.70;;;21.20;66.00;;;;;;6324760;28;20051;-77
2023/06/04 09:39:21;;;;;;;8.52;3.30;;;21.30;65.90;;;;;;6324976;28;20059;-76
2023/06/04 09:42:23;;;;;;;4.40;2.70;;;21.40;66.30;;;;;;6324220;28;20040;-76
2023/06/04 09:45:29;;;;;;;4.90;2.90;;;21.40;65.30;;;;;;6323829;28;20485;-76
2023/06/04 09:48:33;;;;;;;7.60;3.10;;;21.50;65.20;;;;;;6322039;28;20059;-76
2023/06/04 09:51:35;;;;;;;6.53;2.90;;;21.60;65.00;;;;;;6320380;28;20048;-77
2023/06/04 09:54:37;;;;;;;7.18;3.30;;;21.70;65.00;;;;;;6331646;28;20062;-77
2023/06/04 09:57:40;;;;;;;7.65;3.20;;;21.70;64.80;;;;;;6320714;28;20490;-77
2023/06/04 10:00:42;;;;;;;6.72;3.28;;;21.80;64.30;;;;;;6327808;28;20409;-76
2023/06/04 10:03:51;;;;;;;5.88;2.90;;;21.80;64.80;;;;;;6338936;28;20047;-76
2023/06/04 10:06:53;;;;;;;5.40;3.30;;;21.90;64.70;;;;;;6321126;28;20044;-77
2023/06/04 10:09:56;;;;;;;9.10;5.82;;;22.00;64.30;;;;;;6333456;28;20043;-79
2023/06/04 10:13:06;;;;;;;6.97;3.72;;;22.00;64.10;;;;;;6346196;28;20051;-77
2023/06/04 10:16:08;;;;;;;6.80;4.05;;;22.10;63.90;;;;;;6333451;28;20062;-77
2023/06/04 10:19:12;;;;;;;7.85;3.80;;;22.10;63.30;;;;;;6321440;28;20062;-76
2023/06/04 10:22:14;;;;;;;7.15;3.30;;;22.20;63.60;;;;;;6321760;28;20048;-76
2023/06/04 10:25:17;;;;;;;7.65;4.00;;;22.30;62.90;;;;;;6320642;28;20378;-77
2023/06/04 10:28:20;;;;;;;;;;;22.40;63.00;;;;;;6323339;28;20055;-76
2023/06/04 10:31:22;;;;;;;8.93;3.58;;;22.40;62.50;;;;;;6323411;28;19927;-78
2023/06/04 10:34:28;;;;;;;7.78;3.63;;;22.40;62.50;;;;;;6320122;28;20374;-75
2023/06/04 10:37:30;;;;;;;6.35;3.45;;;22.50;63.00;;;;;;6319585;28;20066;-75
2023/06/04 10:40:33;;;;;;;8.27;3.88;;;22.60;62.60;;;;;;6319739;28;20056;-73
2023/06/04 10:43:35;;;;;;;;;;;22.50;61.60;;;;;;6320224;28;20051;-74
2023/06/04 10:46:42;;;;;;;6.20;3.80;;;22.40;62.20;;;;;;6320635;28;19935;-74
2023/06/04 10:49:45;;;;;;;9.02;3.55;;;22.50;62.60;;;;;;6323290;28;20505;-74
2023/06/04 10:52:54;;;;;;;9.60;4.32;;;22.60;68.20;;;;;;6323708;28;20051;-71
2023/06/04 10:55:57;;;;;;;6.78;3.85;;;22.70;62.80;;;;;;6319241;28;20052;-72
2023/06/04 10:59:00;;;;;;;8.27;4.70;;;22.90;62.30;;;;;;6319198;28;20048;-78
2023/06/04 11:02:06;;;;;;;;;;;22.90;61.80;;;;;;6319008;28;20052;-78
2023/06/04 11:05:10;;;;;;;7.00;3.92;;;23.00;61.10;;;;;;6334372;28;19927;-78
2023/06/04 11:08:14;;;;;;;5.97;3.88;;;23.00;61.50;;;;;;6318094;28;20048;-79
2023/06/04 11:11:17;;;;;;;6.03;3.75;;;23.00;61.00;;;;;;6324127;28;20137;-76
2023/06/04 11:14:18;;;;;;;8.95;4.10;;;23.20;61.10;;;;;;6324555;28;20055;-78
2023/06/04 11:17:20;;;;;;;6.18;3.92;;;23.10;61.00;;;;;;6323192;28;20409;-76
2023/06/04 11:20:24;;;;;;;8.98;4.32;;;23.10;60.50;;;;;;6323277;28;20063;-75
2023/06/04 11:23:26;;;;;;;7.85;4.35;;;23.00;60.80;;;;;;6298212;28;20048;-74
2023/06/04 11:26:32;;;;;;;7.18;4.28;;;23.10;60.30;;;;;;6298600;28;20055;-74
2023/06/04 11:29:34;;;;;;;9.25;4.13;;;23.30;60.70;;;;;;6319674;28;20059;-75
2023/06/04 11:32:36;;;;;;;8.40;4.07;;;23.40;60.20;;;;;;6331458;28;20048;-78
2023/06/04 11:35:43;;;;;;;7.45;4.20;;;23.50;60.80;;;;;;6332550;28;20048;-77
2023/06/04 11:38:56;;;;;;;6.07;3.75;;;23.50;58.80;;;;;;6324031;28;20044;-79
2023/06/04 11:41:59;;;;;;;8.60;4.25;;;23.60;58.60;;;;;;6323918;28;20044;-79
2023/06/04 11:45:01;;;;;;;8.07;3.63;;;23.60;59.20;;;;;;6324588;28;20054;-76
2023/06/04 11:48:06;;;;;;;7.25;3.85;;;23.80;59.80;;;;;;6329850;28;20443;-78
2023/06/04 11:51:09;;;;;;;7.00;4.07;;;23.70;59.50;;;;;;6330792;28;20052;-78
2023/06/04 11:54:11;;;;;;;6.05;4.28;;;23.90;60.30;;;;;;6328492;28;20085;-78
2023/06/04 11:57:13;;;;;;;6.68;4.53;;;24.10;58.70;;;;;;6325939;28;20486;-77
2023/06/04 12:00:17;;;;;;;7.15;4.30;;;24.20;57.60;;;;;;6322209;28;20063;-76
2023/06/04 12:03:19;;;;;;;6.43;4.20;;;24.30;57.90;;;;;;6323317;28;20055;-77
2023/06/04 12:06:22;;;;;;;7.88;5.00;;;24.20;55.20;;;;;;6321084;28;20044;-77
2023/06/04 12:09:27;;;;;;;;;;;24.40;57.90;;;;;;6322750;28;20400;-76
2023/06/04 12:12:28;;;;;;;6.78;4.05;;;24.50;56.80;;;;;;6322828;28;20270;-77
2023/06/04 12:15:30;;;;;;;7.20;4.13;;;24.60;56.20;;;;;;6325247;28;20400;-80
2023/06/04 12:18:32;;;;;;;7.22;4.10;;;24.50;54.00;;;;;;6338200;28;20055;-77
2023/06/04 12:21:36;;;;;;;9.30;4.55;;;24.60;54.80;;;;;;6335724;28;20047;-78
2023/06/04 12:24:49;;;;;;;8.18;4.30;;;24.80;56.10;;;;;;6347759;28;20051;-77
2023/06/04 12:27:51;;;;;;;7.57;4.15;;;25.10;55.10;;;;;;6325598;28;20047;-79
2023/06/04 12:30:52;;;;;;;7.97;4.20;;;25.30;55.30;;;;;;6326020;28;20055;-76
2023/06/04 12:33:54;;;;;;;8.57;4.32;;;25.30;53.90;;;;;;6341911;28;20048;-77
2023/06/04 12:36:57;;;;;;;7.82;4.45;;;25.20;52.60;;;;;;6330292;28;20052;-77
2023/06/04 12:39:59;;;;;;;;;;;25.30;53.40;;;;;;6330170;28;20056;-78
2023/06/04 12:43:01;;;;;;;7.30;4.03;;;25.60;54.50;;;;;;6345596;28;19919;-78
2023/06/04 12:46:03;;;;;;;7.00;4.82;;;25.70;53.00;;;;;;6323788;28;20348;-78
2023/06/04 12:49:05;;;;;;;8.77;4.10;;;25.90;53.20;;;;;;6321201;28;20064;-78
2023/06/04 12:52:08;;;;;;;6.28;3.72;;;26.10;52.20;;;;;;6321961;28;20044;-77
2023/06/04 12:55:10;;;;;;;6.43;3.58;;;26.20;51.90;;;;;;6322009;28;20051;-79
2023/06/04 12:58:12;;;;;;;8.32;3.85;;;26.20;51.80;;;;;;6320844;28;20052;-78
2023/06/04 13:01:14;;;;;;;9.43;4.50;;;26.30;52.20;;;;;;6320247;28;20052;-78
2023/06/04 13:04:16;;;;;;;7.40;3.83;;;26.40;51.30;;;;;;6321613;28;20124;-78
2023/06/04 13:07:19;;;;;;;6.55;3.78;;;26.50;50.70;;;;;;6321124;28;20048;-78
2023/06/04 13:10:21;;;;;;;7.32;3.85;;;26.30;50.20;;;;;;6329851;28;20072;-76
2023/06/04 13:13:23;;;;;;;7.90;4.20;;;26.50;50.00;;;;;;6327711;28;20055;-76
2023/06/04 13:16:25;;;;;;;7.40;4.07;;;26.70;49.20;;;;;;6325701;28;20059;-76
2023/06/04 13:19:27;;;;;;;8.10;3.80;;;26.90;48.40;;;;;;6321207;28;20188;-76
2023/06/04 13:22:30;;;;;;;6.95;3.83;;;27.00;49.20;;;;;;6320921;28;20044;-77
2023/06/04 13:25:32;;;;;;;8.30;5.10;;;27.10;48.70;;;;;;6319927;28;20055;-78
2023/06/04 13:28:34;;;;;;;8.87;5.13;;;27.30;48.90;;;;;;6333748;28;20051;-76
2023/06/04 13:31:37;;;;;;;6.15;3.75;;;27.50;48.30;;;;;;6320875;28;20321;-76
2023/06/04 13:34:39;;;;;;;7.22;4.03;;;27.40;47.60;;;;;;6318539;28;20121;-76
2023/06/04 13:37:42;;;;;;;6.60;4.28;;;27.50;49.50;;;;;;6320942;28;20040;-78
2023/06/04 13:40:44;;;;;;;7.05;3.95;;;27.70;49.50;;;;;;6321018;28;20055;-77
2023/06/04 13:43:46;;;;;;;6.47;3.60;;;27.70;48.40;;;;;;6323820;28;20044;-76
2023/06/04 13:46:48;;;;;;;8.00;3.63;;;27.90;47.50;;;;;;6323477;28;20040;-75
2023/06/04 13:49:50;;;;;;;8.10;3.95;;;27.80;46.70;;;;;;6323441;28;20060;-80
2023/06/04 13:52:53;;;;;;;5.40;3.25;;;27.70;47.50;;;;;;6322726;28;20051;-76
2023/06/04 13:55:57;;;;;;;6.75;3.88;;;28.00;47.40;;;;;;6322962;28;20432;-78
2023/06/04 13:58:59;;;;;;;6.80;3.55;;;28.00;46.40;;;;;;6323024;28;20127;-76
2023/06/04 14:02:01;;;;;;;5.95;3.70;;;27.80;45.40;;;;;;6323158;28;20048;-76
2023/06/04 14:05:05;;;;;;;5.85;3.55;;;27.50;46.30;;;;;;6323254;28;20048;-78
2023/06/04 14:08:08;;;;;;;5.85;3.20;;;27.50;46.00;;;;;;6322798;28;20126;-76
2023/06/04 14:11:10;;;;;;;5.50;3.50;;;27.80;46.20;;;;;;6318174;28;20051;-78
2023/06/04 14:14:12;;;;;;;5.90;3.75;;;28.20;46.30;;;;;;6331765;28;20083;-77
2023/06/04 14:17:14;;;;;;;5.28;3.17;;;28.40;47.50;;;;;;6346919;28;20048;-77
2023/06/04 14:20:16;;;;;;;7.15;3.50;;;28.30;47.10;;;;;;6345616;28;20180;-79
2023/06/04 14:23:20;;;;;;;8.52;3.92;;;28.80;46.00;;;;;;6344464;28;20050;-76
2023/06/04 14:26:22;;;;;;;7.32;3.47;;;29.10;45.00;;;;;;6322901;28;20051;-79
2023/06/04 14:29:24;;;;;;;5.47;3.15;;;29.30;44.90;;;;;;6322444;28;20127;-77
2023/06/04 14:32:25;;;;;;;5.90;3.20;;;29.30;45.20;;;;;;6324724;28;20051;-75
2023/06/04 14:35:27;;;;;;;6.70;3.80;;;29.50;44.10;;;;;;6326069;28;20477;-79
2023/06/04 14:38:31;;;;;;;6.45;3.55;;;29.50;44.10;;;;;;6334227;28;20044;-76
2023/06/04 14:41:33;;;;;;;6.15;3.50;;;29.90;45.40;;;;;;6340463;28;20058;-77
2023/06/04 14:44:35;;;;;;;8.52;3.88;;;29.80;44.50;;;;;;6340267;28;20044;-78
2023/06/04 14:47:38;;;;;;;5.07;3.38;;;29.60;43.50;;;;;;6345021;28;20109;-77
2023/06/04 14:50:39;;;;;;;7.68;3.17;;;29.40;43.20;;;;;;6335689;28;20055;-77
2023/06/04 14:53:43;;;;;;;5.75;3.40;;;29.20;43.90;;;;;;6327844;28;20044;-78
2023/06/04 14:56:45;;;;;;;5.95;3.28;;;29.60;43.40;;;;;;6327075;28;20177;-77
2023/06/04 14:59:49;;;;;;;5.90;3.23;;;30.10;44.00;;;;;;6322535;28;20383;-77
2023/06/04 15:02:51;;;;;;;5.65;3.20;;;30.40;43.80;;;;;;6347147;28;20055;-77
2023/06/04 15:05:53;;;;;;;5.20;3.10;;;29.90;44.40;;;;;;6333617;28;20048;-76
2023/06/04 15:08:56;;;;;;;6.47;3.20;;;30.10;44.00;;;;;;6324079;28;20071;-79
2023/06/04 15:11:58;;;;;;;5.97;2.92;;;30.10;44.80;;;;;;6323941;28;20048;-78
2023/06/04 15:15:00;;;;;;;6.15;3.03;;;30.10;42.90;;;;;;6324079;28;20051;-75
2023/06/04 15:18:02;;;;;;;5.65;3.25;;;30.10;44.00;;;;;;6319791;28;20397;-78
2023/06/04 15:21:04;;;;;;;5.97;3.10;;;30.10;43.20;;;;;;6323727;28;20048;-77
2023/06/04 15:24:08;;;;;;;5.40;2.97;;;30.10;44.00;;;;;;6323651;28;20408;-77
2023/06/04 15:27:10;;;;;;;4.80;3.10;;;30.30;43.20;;;;;;6334991;28;20055;-78
2023/06/04 15:30:12;;;;;;;4.33;2.80;;;30.70;42.60;;;;;;6323821;28;20521;-77
2023/06/04 15:33:16;;;;;;;5.63;3.05;;;31.10;41.90;;;;;;6328323;28;20051;-76
2023/06/04 15:36:18;;;;;;;5.18;2.92;;;31.70;41.50;;;;;;6322576;28;20043;-75
2023/06/04 15:39:22;;;;;;;5.33;2.83;;;31.40;42.00;;;;;;6325031;28;20051;-76
2023/06/04 15:42:24;;;;;;;5.18;3.00;;;31.20;41.80;;;;;;6324016;28;20310;-76
2023/06/04 15:45:25;;;;;;;6.47;3.17;;;31.30;42.40;;;;;;6326521;28;20051;-76
2023/06/04 15:48:29;;;;;;;4.87;2.97;;;30.40;41.20;;;;;;6329045;28;20834;-78
2023/06/04 15:51:30;;;;;;;9.27;6.25;;;30.50;43.10;;;;;;6329846;28;20084;-76